Time;durP1;ratioP1;P1;durP2;ratioP2;P2;SDS_P1;SDS_P2;PMS_P1;PMS_P2;Temp;Humidity;BMP_temperature;BMP_pressure;BME280_temperature;BME280_humidity;BME280_pressure;Samples;Min_cycle;Max_cycle;Signal;HPM_P1;HPM_P2
2023/10/05 00:01:12;;;;;;;14.65;2.53;;;13.10;99.90;;;;;;5072261;28;20079;-58
2023/10/05 00:03:44;;;;;;;11.75;2.42;;;13.20;99.90;;;;;;5072017;28;20051;-58
2023/10/05 00:06:29;;;;;;;9.88;2.53;;;13.10;99.90;;;;;;5072047;28;20052;-58
2023/10/05 00:08:56;;;;;;;12.15;2.50;;;13.10;99.90;;;;;;5071827;28;20101;-58
2023/10/05 00:13:58;;;;;;;9.07;2.88;;;13.10;99.90;;;;;;5072020;28;20041;-58
2023/10/05 00:16:37;;;;;;;10.80;2.88;;;13.10;99.90;;;;;;5071977;28;20044;-58
2023/10/05 00:19:11;;;;;;;7.93;3.00;;;13.10;99.90;;;;;;5072135;28;20045;-58
2023/10/05 00:21:56;;;;;;;11.30;2.80;;;13.10;99.90;;;;;;5071867;28;20052;-58
2023/10/05 00:24:34;;;;;;;8.10;2.50;;;13.10;99.90;;;;;;5071951;28;20370;-46
2023/10/05 00:27:03;;;;;;;8.82;2.58;;;13.10;99.90;;;;;;5072028;28;20079;-46
2023/10/05 00:29:35;;;;;;;10.50;2.95;;;13.10;99.90;;;;;;5071620;28;20051;-45
2023/10/05 00:32:01;;;;;;;;;;;13.10;99.90;;;;;;5075993;28;20048;-45
2023/10/05 00:34:28;;;;;;;10.82;2.78;;;13.10;99.90;;;;;;5075927;28;20015;-45
2023/10/05 00:36:58;;;;;;;12.82;2.40;;;13.10;99.90;;;;;;5074598;28;20625;-47
2023/10/05 00:39:25;;;;;;;10.00;2.47;;;13.10;99.90;;;;;;5075533;28;20075;-45
2023/10/05 00:44:30;;;;;;;9.75;2.72;;;13.10;99.90;;;;;;5075443;28;20419;-58
2023/10/05 00:47:00;;;;;;;12.52;2.78;;;13.20;99.90;;;;;;5075330;28;20059;-58
2023/10/05 00:49:37;;;;;;;11.77;2.85;;;13.10;99.90;;;;;;5075325;28;20499;-58
2023/10/05 00:54:31;;;;;;;7.53;2.55;;;13.30;99.90;;;;;;5075259;28;20519;-45
2023/10/05 00:57:03;;;;;;;8.02;2.42;;;13.30;99.90;;;;;;5075359;28;20036;-45
2023/10/05 00:59:31;;;;;;;10.57;2.83;;;13.30;99.90;;;;;;5075408;28;20080;-46
2023/10/05 01:04:34;;;;;;;12.65;2.60;;;13.40;99.90;;;;;;5075134;28;20052;-45
2023/10/05 01:07:18;;;;;;;9.73;2.83;;;13.40;99.90;;;;;;5075293;28;20041;-45
2023/10/05 01:14:58;;;;;;;9.25;2.70;;;13.40;99.90;;;;;;5075241;28;20051;-58
2023/10/05 01:17:26;;;;;;;9.13;2.30;;;13.40;99.90;;;;;;5075214;28;20071;-58
2023/10/05 01:19:59;;;;;;;9.48;3.17;;;13.40;99.90;;;;;;5074877;28;20043;-58
2023/10/05 01:22:32;;;;;;;12.15;3.17;;;13.40;99.90;;;;;;5073808;28;20046;-58
2023/10/05 01:24:59;;;;;;;9.60;2.63;;;13.30;99.90;;;;;;5074784;28;20037;-58
2023/10/05 01:27:29;;;;;;;12.52;2.22;;;13.30;99.90;;;;;;5074874;28;20040;-58
2023/10/05 01:30:00;;;;;;;10.18;2.70;;;13.30;99.90;;;;;;5074779;28;20044;-58
2023/10/05 01:32:26;;;;;;;10.20;2.30;;;13.40;99.90;;;;;;5074503;28;20087;-58
2023/10/05 01:34:53;;;;;;;10.52;3.20;;;13.40;99.90;;;;;;5073366;28;20122;-58
2023/10/05 01:37:23;;;;;;;12.80;2.38;;;13.40;99.90;;;;;;5074684;28;20048;-58
2023/10/05 01:39:52;;;;;;;11.05;2.88;;;13.40;99.90;;;;;;5074419;28;20496;-58
2023/10/05 01:42:21;;;;;;;9.82;2.20;;;13.40;99.90;;;;;;5073832;28;20435;-58
2023/10/05 01:44:47;;;;;;;9.02;2.50;;;13.40;99.90;;;;;;5074411;28;20450;-46
2023/10/05 01:47:17;;;;;;;11.23;2.50;;;13.40;99.90;;;;;;5074437;28;20036;-46
2023/10/05 01:49:46;;;;;;;11.85;2.15;;;13.50;99.90;;;;;;5074449;28;20036;-46
2023/10/05 01:52:16;;;;;;;10.07;2.13;;;13.60;99.90;;;;;;5074252;28;20041;-46
2023/10/05 01:54:43;;;;;;;9.60;2.50;;;13.60;99.90;;;;;;5073004;28;20044;-49
2023/10/05 01:57:09;;;;;;;9.30;1.98;;;13.60;99.90;;;;;;5073178;28;20080;-58
2023/10/05 01:59:37;;;;;;;14.38;3.15;;;13.70;99.90;;;;;;5074006;28;20090;-58
2023/10/05 02:02:15;;;;;;;8.85;2.10;;;13.80;99.90;;;;;;5074032;28;20041;-58
2023/10/05 02:04:44;;;;;;;9.48;2.15;;;13.80;99.10;;;;;;5073829;28;20488;-57
2023/10/05 02:07:15;;;;;;;12.85;2.10;;;13.80;99.10;;;;;;5074068;28;20047;-58
2023/10/05 02:09:41;;;;;;;12.40;2.85;;;13.90;97.50;;;;;;5073986;28;20489;-58
2023/10/05 02:12:07;;;;;;;15.98;3.25;;;13.90;97.70;;;;;;5073837;28;20124;-58
2023/10/05 02:14:35;;;;;;;12.27;2.75;;;13.90;97.80;;;;;;5073565;28;20128;-58
2023/10/05 02:17:03;;;;;;;14.32;2.45;;;13.80;97.50;;;;;;5072701;28;20047;-58
2023/10/05 02:19:30;;;;;;;10.57;3.08;;;13.80;97.80;;;;;;5072826;28;20071;-58
2023/10/05 02:21:58;;;;;;;12.93;2.45;;;13.80;97.00;;;;;;5072645;28;20543;-58
2023/10/05 02:24:25;;;;;;;10.52;2.10;;;13.90;96.20;;;;;;5073910;28;20036;-58
2023/10/05 02:29:31;;;;;;;10.93;2.50;;;13.80;96.30;;;;;;5073490;28;20040;-49
2023/10/05 02:34:45;;;;;;;13.07;2.30;;;13.80;96.90;;;;;;5072441;28;20121;-50
2023/10/05 02:37:11;;;;;;;8.70;2.08;;;13.80;96.20;;;;;;5072215;28;20527;-45
2023/10/05 02:39:41;;;;;;;11.63;2.33;;;13.80;96.90;;;;;;5073400;28;20052;-47
2023/10/05 02:42:14;;;;;;;17.05;2.88;;;13.80;97.20;;;;;;5073337;28;20039;-48
2023/10/05 02:44:44;;;;;;;11.20;2.92;;;13.80;98.00;;;;;;5073128;28;20044;-46
2023/10/05 02:47:14;;;;;;;10.40;2.25;;;13.80;97.80;;;;;;5073202;28;20087;-58
2023/10/05 02:49:44;;;;;;;14.70;2.50;;;13.80;97.40;;;;;;5073003;28;20759;-58
2023/10/05 02:52:19;;;;;;;9.55;2.55;;;13.80;97.50;;;;;;5073070;28;20037;-58
2023/10/05 02:54:49;;;;;;;10.18;2.80;;;13.80;98.20;;;;;;5072332;28;20052;-58
2023/10/05 02:57:16;;;;;;;12.57;2.60;;;13.80;97.10;;;;;;5073073;28;20062;-58
2023/10/05 02:59:43;;;;;;;10.48;2.30;;;13.80;97.40;;;;;;5072791;28;20098;-58
2023/10/05 03:02:14;;;;;;;15.63;2.90;;;13.80;98.80;;;;;;5072947;28;20051;-58
2023/10/05 03:04:57;;;;;;;12.87;2.50;;;13.80;97.50;;;;;;5072930;28;20187;-55
2023/10/05 03:07:27;;;;;;;12.07;2.15;;;13.80;98.50;;;;;;5071546;28;20028;-48
2023/10/05 03:09:56;;;;;;;11.88;3.20;;;13.80;99.00;;;;;;5072687;28;20051;-45
2023/10/05 03:12:21;;;;;;;13.32;2.50;;;13.90;99.20;;;;;;5072688;28;20052;-46
2023/10/05 03:14:50;;;;;;;13.23;2.92;;;13.90;98.60;;;;;;5072563;28;20045;-47
2023/10/05 03:17:19;;;;;;;14.90;2.47;;;13.90;99.00;;;;;;5072600;28;20041;-46
2023/10/05 03:19:45;;;;;;;13.43;2.95;;;13.90;99.20;;;;;;5072619;28;20043;-46
2023/10/05 03:22:14;;;;;;;10.27;2.50;;;14.00;99.10;;;;;;5072741;28;20040;-47
2023/10/05 03:24:45;;;;;;;15.57;2.95;;;14.00;99.10;;;;;;5072323;28;20044;-45
2023/10/05 03:27:11;;;;;;;16.88;2.70;;;14.00;99.10;;;;;;5072321;28;20048;-47
2023/10/05 03:29:38;;;;;;;11.95;2.90;;;14.00;99.70;;;;;;5072312;28;20032;-59
2023/10/05 03:34:34;;;;;;;14.02;2.92;;;14.10;99.80;;;;;;5072706;28;20055;-58
2023/10/05 03:37:04;;;;;;;12.25;3.10;;;14.00;99.90;;;;;;5072364;28;20121;-58
2023/10/05 03:39:33;;;;;;;12.77;3.03;;;14.10;99.90;;;;;;5072591;28;20071;-58
2023/10/05 03:41:59;;;;;;;16.13;2.58;;;14.00;99.90;;;;;;5072124;28;20041;-46
2023/10/05 03:44:26;;;;;;;10.43;2.75;;;14.10;99.90;;;;;;5072351;28;20115;-46
2023/10/05 03:46:52;;;;;;;15.60;2.75;;;14.00;99.90;;;;;;5072238;28;20051;-46
2023/10/05 03:49:21;;;;;;;13.43;2.60;;;14.00;99.90;;;;;;5072339;28;20346;-47
2023/10/05 03:51:50;;;;;;;17.50;3.45;;;14.00;99.90;;;;;;5072195;28;20033;-47
2023/10/05 03:54:26;;;;;;;11.55;2.50;;;13.90;99.90;;;;;;5071978;28;20037;-46
2023/10/05 03:57:30;;;;;;;15.25;2.83;;;13.90;99.90;;;;;;5072070;28;20485;-46
2023/10/05 03:59:44;;;;;;;14.30;3.63;;;13.90;99.90;;;;;;5070679;28;20052;-47
2023/10/05 04:02:10;;;;;;;12.05;2.50;;;13.90;99.90;;;;;;5072213;28;20470;-58
2023/10/05 04:04:37;;;;;;;12.75;2.80;;;13.80;99.90;;;;;;5071780;28;20389;-58
2023/10/05 04:07:03;;;;;;;13.95;3.22;;;13.80;99.90;;;;;;5071898;28;20040;-58
2023/10/05 04:09:29;;;;;;;14.57;2.80;;;13.80;99.90;;;;;;5072212;28;20072;-57
2023/10/05 04:11:56;;;;;;;13.02;3.10;;;13.80;99.90;;;;;;5071883;28;20558;-58
2023/10/05 04:14:22;;;;;;;11.13;2.47;;;13.80;99.90;;;;;;5072045;28;20037;-59
2023/10/05 04:16:49;;;;;;;16.08;2.70;;;13.80;99.90;;;;;;5071943;28;20122;-57
2023/10/05 04:19:17;;;;;;;17.30;4.13;;;13.70;99.90;;;;;;5072044;28;20048;-58
2023/10/05 04:21:44;;;;;;;15.23;3.30;;;13.70;99.90;;;;;;5070460;28;20052;-58
2023/10/05 04:24:14;;;;;;;10.55;2.33;;;13.70;99.90;;;;;;5071940;28;20036;-58
2023/10/05 04:26:44;;;;;;;13.68;3.17;;;13.70;99.90;;;;;;5071992;28;20041;-58
2023/10/05 04:29:14;;;;;;;15.75;3.22;;;13.70;99.90;;;;;;5072115;28;20041;-58
2023/10/05 04:31:41;;;;;;;19.25;3.22;;;13.70;99.90;;;;;;5071609;28;20061;-57
2023/10/05 04:34:12;;;;;;;14.70;2.60;;;13.70;99.90;;;;;;5071845;28;20421;-58
2023/10/05 04:36:39;;;;;;;10.98;2.88;;;13.70;99.90;;;;;;5071934;28;20050;-58
2023/10/05 04:39:06;;;;;;;12.80;2.50;;;13.70;99.90;;;;;;5071869;28;20044;-57
2023/10/05 04:41:39;;;;;;;15.95;2.65;;;13.70;99.90;;;;;;5071319;28;20123;-58
2023/10/05 04:44:11;;;;;;;14.75;3.08;;;13.70;99.90;;;;;;5071601;28;20052;-58
2023/10/05 04:46:36;;;;;;;;;;;13.70;99.90;;;;;;5071992;28;20044;-58
2023/10/05 04:49:12;;;;;;;12.73;2.72;;;13.80;99.90;;;;;;5071654;28;19940;-59
2023/10/05 04:51:39;;;;;;;18.38;3.08;;;13.80;99.90;;;;;;5071627;28;20036;-58
2023/10/05 04:54:07;;;;;;;13.02;3.10;;;13.80;99.90;;;;;;5071797;28;20401;-58
2023/10/05 04:57:34;;;;;;;13.82;2.90;;;13.70;99.90;;;;;;5071605;28;20040;-59
2023/10/05 04:59:37;;;;;;;16.38;3.28;;;13.70;99.90;;;;;;5068221;28;20044;-59
2023/10/05 05:02:18;;;;;;;12.90;2.58;;;13.70;99.90;;;;;;5071418;28;20179;-58
2023/10/05 05:07:13;;;;;;;16.02;3.40;;;13.70;99.90;;;;;;5071081;28;20503;-58
2023/10/05 05:09:42;;;;;;;15.52;2.95;;;13.60;99.90;;;;;;5071203;28;20032;-48
2023/10/05 05:12:19;;;;;;;13.73;3.72;;;13.70;99.90;;;;;;5071271;28;20473;-48
2023/10/05 05:14:47;;;;;;;9.10;2.60;;;13.60;99.90;;;;;;5069807;28;20481;-46
2023/10/05 05:17:22;;;;;;;14.52;2.85;;;13.60;99.90;;;;;;5072280;28;20427;-58
2023/10/05 05:19:48;;;;;;;17.55;3.33;;;13.70;99.90;;;;;;5074935;28;20036;-58
2023/10/05 05:22:14;;;;;;;16.55;3.35;;;13.70;99.90;;;;;;5075058;28;20043;-58
2023/10/05 05:24:41;;;;;;;12.35;2.65;;;13.70;99.90;;;;;;5074910;28;20041;-58
2023/10/05 05:29:42;;;;;;;12.45;3.65;;;13.70;99.90;;;;;;5074630;28;20068;-47
2023/10/05 05:32:10;;;;;;;16.77;2.67;;;13.80;99.90;;;;;;5074380;28;20447;-46
2023/10/05 05:34:43;;;;;;;15.07;4.30;;;13.80;99.90;;;;;;5074886;28;20817;-47
2023/10/05 05:37:25;;;;;;;9.15;2.85;;;13.80;99.90;;;;;;5073393;28;20037;-48
2023/10/05 05:40:09;;;;;;;13.73;3.10;;;13.70;99.90;;;;;;5074348;28;20042;-49
2023/10/05 05:42:35;;;;;;;13.45;3.25;;;13.80;99.90;;;;;;5074536;28;20090;-58
2023/10/05 05:45:06;;;;;;;14.02;3.05;;;13.80;99.90;;;;;;5074434;28;20044;-58
2023/10/05 05:47:33;;;;;;;14.82;2.95;;;13.80;99.90;;;;;;5074499;28;20044;-58
2023/10/05 05:50:00;;;;;;;14.23;2.80;;;13.80;99.90;;;;;;5074325;28;20037;-58
2023/10/05 05:52:27;;;;;;;15.70;2.95;;;13.90;99.90;;;;;;5074337;28;20060;-51
2023/10/05 05:54:52;;;;;;;15.93;2.97;;;13.90;99.90;;;;;;5074192;28;20106;-48
2023/10/05 05:57:19;;;;;;;19.35;3.75;;;13.90;99.90;;;;;;5073988;28;20036;-46
2023/10/05 05:59:45;;;;;;;13.05;4.88;;;14.00;99.90;;;;;;5072880;28;20119;-46
2023/10/05 06:02:11;;;;;;;16.27;3.00;;;14.00;99.90;;;;;;5074153;28;20136;-46
2023/10/05 06:04:40;;;;;;;13.98;3.67;;;14.00;99.90;;;;;;5072732;28;20068;-47
2023/10/05 06:07:13;;;;;;;18.42;3.10;;;14.10;99.90;;;;;;5072756;28;20041;-58
2023/10/05 06:09:43;;;;;;;15.27;3.22;;;14.10;99.90;;;;;;5073859;28;20074;-59
2023/10/05 06:12:12;;;;;;;16.92;3.58;;;14.20;99.90;;;;;;5073959;28;20048;-58
2023/10/05 06:14:41;;;;;;;13.52;2.63;;;14.30;99.90;;;;;;5072309;28;20039;-58
2023/10/05 06:17:11;;;;;;;14.27;3.15;;;14.30;99.90;;;;;;5073091;28;20370;-58
2023/10/05 06:19:37;;;;;;;12.85;2.75;;;14.30;99.90;;;;;;5073051;28;20044;-50
2023/10/05 06:22:06;;;;;;;14.70;3.47;;;14.30;99.90;;;;;;5072785;28;20111;-47
2023/10/05 06:24:32;;;;;;;13.77;3.13;;;14.40;99.90;;;;;;5073018;28;20346;-49
2023/10/05 06:27:00;;;;;;;14.82;3.53;;;14.40;99.90;;;;;;5072748;28;20048;-48
2023/10/05 06:29:25;;;;;;;16.20;2.83;;;14.40;99.90;;;;;;5072682;28;20056;-48
2023/10/05 06:31:52;;;;;;;14.02;3.53;;;14.30;99.90;;;;;;5071324;28;20057;-49
2023/10/05 06:34:18;;;;;;;15.82;3.40;;;14.40;99.90;;;;;;5072863;28;20041;-47
2023/10/05 06:36:43;;;;;;;13.85;3.25;;;14.40;99.90;;;;;;5072653;28;20381;-47
2023/10/05 06:39:09;;;;;;;17.95;3.30;;;14.40;99.90;;;;;;5072761;28;20040;-49
2023/10/05 06:41:36;;;;;;;16.70;3.28;;;14.40;99.90;;;;;;5072716;28;20111;-47
2023/10/05 06:44:03;;;;;;;16.02;3.58;;;14.50;99.90;;;;;;5072495;28;20039;-59
2023/10/05 06:46:29;;;;;;;12.55;2.88;;;14.50;99.90;;;;;;5072351;28;20496;-58
2023/10/05 06:48:55;;;;;;;16.33;3.10;;;14.40;99.90;;;;;;5072245;28;20040;-58
2023/10/05 06:51:25;;;;;;;10.90;2.92;;;14.50;99.90;;;;;;5072263;28;20040;-58
2023/10/05 06:53:52;;;;;;;10.95;2.90;;;14.60;99.90;;;;;;5072439;28;20797;-59
2023/10/05 06:56:19;;;;;;;12.60;3.10;;;14.60;99.90;;;;;;5072114;28;20050;-58
2023/10/05 06:58:45;;;;;;;15.32;3.65;;;14.60;99.90;;;;;;5071961;28;20480;-58
2023/10/05 07:01:11;;;;;;;15.55;2.97;;;14.60;99.90;;;;;;5072200;28;20044;-58
2023/10/05 07:03:38;;;;;;;12.63;2.60;;;14.60;99.90;;;;;;5072014;28;20632;-58
2023/10/05 07:06:04;;;;;;;13.23;3.13;;;14.60;99.90;;;;;;5071913;28;20476;-58
2023/10/05 07:08:33;;;;;;;12.50;3.47;;;14.70;99.90;;;;;;5072318;28;20086;-59
2023/10/05 07:10:59;;;;;;;14.45;3.50;;;14.80;99.90;;;;;;5072023;28;20094;-47
2023/10/05 07:13:28;;;;;;;17.52;3.33;;;14.80;99.90;;;;;;5071982;28;20036;-47
2023/10/05 07:15:57;;;;;;;15.98;3.00;;;14.80;99.90;;;;;;5071942;28;20047;-48
2023/10/05 07:18:24;;;;;;;11.90;2.90;;;14.80;99.90;;;;;;5071991;28;20452;-58
2023/10/05 07:20:50;;;;;;;15.82;3.15;;;14.90;99.90;;;;;;5072047;28;20044;-58
2023/10/05 07:23:16;;;;;;;15.73;3.20;;;14.90;99.90;;;;;;5063115;28;20144;-58
2023/10/05 07:25:41;;;;;;;15.40;3.13;;;14.90;99.90;;;;;;5059572;28;20090;-58
2023/10/05 07:28:14;;;;;;;12.75;3.03;;;14.90;99.90;;;;;;5059666;28;20067;-58
2023/10/05 07:30:43;;;;;;;12.68;2.95;;;14.90;99.90;;;;;;5051903;28;20135;-58
2023/10/05 07:33:09;;;;;;;13.60;3.83;;;14.90;99.90;;;;;;5051574;28;20056;-58
2023/10/05 07:35:36;;;;;;;13.75;3.83;;;14.80;99.90;;;;;;5051809;28;20120;-59
2023/10/05 07:38:02;;;;;;;14.88;3.17;;;14.80;99.90;;;;;;5051459;28;20041;-59
2023/10/05 07:40:28;;;;;;;8.02;2.00;;;14.80;99.90;;;;;;5050619;28;20045;-58
2023/10/05 07:42:54;;;;;;;10.48;3.05;;;14.70;99.90;;;;;;5051614;28;20091;-58
2023/10/05 07:45:20;;;;;;;14.18;3.10;;;14.70;99.90;;;;;;5051190;28;20775;-58
2023/10/05 07:47:48;;;;;;;10.90;2.20;;;14.60;99.90;;;;;;5051308;28;20037;-58
2023/10/05 07:50:15;;;;;;;12.55;2.70;;;14.50;99.90;;;;;;5051121;28;20052;-58
2023/10/05 07:52:43;;;;;;;9.88;2.50;;;14.60;99.90;;;;;;5051455;28;20040;-58
2023/10/05 07:55:10;;;;;;;12.80;2.78;;;14.50;99.90;;;;;;5051424;28;20045;-58
2023/10/05 07:57:36;;;;;;;10.57;2.53;;;14.40;99.90;;;;;;5051146;28;20086;-58
2023/10/05 08:00:05;;;;;;;12.90;2.65;;;14.40;99.90;;;;;;5051317;28;20664;-57
2023/10/05 08:02:31;;;;;;;15.25;2.70;;;14.40;99.90;;;;;;5051078;28;20040;-57
2023/10/05 08:04:57;;;;;;;10.63;3.25;;;14.50;99.90;;;;;;5051408;28;20036;-58
2023/10/05 08:07:23;;;;;;;12.43;2.85;;;14.50;99.90;;;;;;5051269;28;20476;-58
2023/10/05 08:09:49;;;;;;;14.15;3.70;;;14.50;99.90;;;;;;5051150;28;20045;-58
2023/10/05 08:12:15;;;;;;;11.32;3.20;;;14.50;99.90;;;;;;5050072;28;20534;-58
2023/10/05 08:14:41;;;;;;;13.73;2.70;;;14.50;99.90;;;;;;5050996;28;20036;-58
2023/10/05 08:17:06;;;;;;;12.52;3.08;;;14.50;99.90;;;;;;5051296;28;20057;-58
2023/10/05 08:19:32;;;;;;;10.65;2.83;;;14.40;99.90;;;;;;5051272;28;20041;-58
2023/10/05 08:21:58;;;;;;;10.75;3.28;;;14.40;99.90;;;;;;5050978;28;20453;-58
2023/10/05 08:24:24;;;;;;;12.68;3.22;;;14.40;99.90;;;;;;5051056;28;20047;-58
2023/10/05 08:26:53;;;;;;;12.18;3.60;;;14.40;99.90;;;;;;5050869;28;20045;-58
2023/10/05 08:29:22;;;;;;;17.48;3.92;;;14.60;99.90;;;;;;5051041;28;20469;-58
2023/10/05 08:31:49;;;;;;;11.57;3.17;;;14.50;99.90;;;;;;5032867;28;20053;-58
2023/10/05 08:34:20;;;;;;;14.10;3.53;;;14.60;99.90;;;;;;5051236;28;20052;-58
2023/10/05 08:36:53;;;;;;;15.57;3.50;;;14.60;99.90;;;;;;5050916;28;20048;-58
2023/10/05 08:39:22;;;;;;;16.90;4.97;;;14.60;99.90;;;;;;5050797;28;20037;-58
2023/10/05 08:41:48;;;;;;;19.30;4.53;;;14.60;99.90;;;;;;5050742;28;20451;-58
2023/10/05 08:44:26;;;;;;;17.70;3.78;;;14.40;99.90;;;;;;5050723;28;20037;-46
2023/10/05 08:46:58;;;;;;;13.35;3.83;;;14.60;99.90;;;;;;5050591;28;20558;-46
2023/10/05 08:49:24;;;;;;;;;;;14.60;99.90;;;;;;5050949;28;20532;-47
2023/10/05 08:51:51;;;;;;;16.55;4.10;;;14.70;99.90;;;;;;5053044;28;19924;-46
2023/10/05 08:54:21;;;;;;;18.30;4.15;;;14.50;99.90;;;;;;5054566;28;20509;-46
2023/10/05 08:56:48;;;;;;;15.02;4.25;;;14.60;99.90;;;;;;5054767;28;20401;-48
2023/10/05 08:59:14;;;;;;;16.40;4.43;;;14.60;99.90;;;;;;5054555;28;20120;-47
2023/10/05 09:01:46;;;;;;;17.08;4.30;;;14.70;99.90;;;;;;5054717;28;20064;-48
2023/10/05 09:06:52;;;;;;;16.23;4.38;;;14.50;99.90;;;;;;5054459;28;20088;-62
2023/10/05 09:09:27;;;;;;;13.93;3.95;;;14.40;99.90;;;;;;5053206;28;20406;-60
2023/10/05 09:11:56;;;;;;;18.33;4.70;;;14.60;99.90;;;;;;5054418;28;20071;-60
2023/10/05 09:14:27;;;;;;;12.52;3.83;;;14.50;99.90;;;;;;5054423;28;20543;-58
2023/10/05 09:17:07;;;;;;;12.80;3.73;;;14.30;99.90;;;;;;5054199;28;20056;-52
2023/10/05 09:19:33;;;;;;;17.05;3.97;;;14.50;99.90;;;;;;5054252;28;20045;-49
2023/10/05 09:24:29;;;;;;;11.55;4.32;;;14.30;99.90;;;;;;5054096;28;20473;-48
2023/10/05 09:26:57;;;;;;;11.90;3.85;;;14.60;99.90;;;;;;5053950;28;20116;-47
2023/10/05 09:29:32;;;;;;;17.58;4.95;;;14.50;99.90;;;;;;5058612;28;20029;-47
2023/10/05 09:31:59;;;;;;;14.25;4.78;;;14.70;99.90;;;;;;5063112;28;20068;-47
2023/10/05 09:34:34;;;;;;;14.77;4.82;;;14.70;99.90;;;;;;5060503;28;20566;-47
2023/10/05 09:37:05;;;;;;;14.02;5.13;;;14.70;99.90;;;;;;5061542;28;20115;-47
2023/10/05 09:39:59;;;;;;;13.68;4.68;;;14.80;99.90;;;;;;5063358;28;20123;-45
2023/10/05 09:42:25;;;;;;;11.98;3.90;;;14.90;99.90;;;;;;5073762;28;20036;-46
2023/10/05 09:44:58;;;;;;;16.38;4.22;;;15.10;99.90;;;;;;5074162;28;20046;-56
2023/10/05 09:47:32;;;;;;;13.23;4.50;;;15.20;99.90;;;;;;5074318;28;20531;-57
2023/10/05 09:50:12;;;;;;;15.63;4.10;;;15.20;99.90;;;;;;5074324;28;20041;-57
2023/10/05 09:52:45;;;;;;;14.27;4.22;;;15.30;99.90;;;;;;5073347;28;20081;-57
2023/10/05 09:55:17;;;;;;;12.63;5.00;;;15.30;99.90;;;;;;5074260;28;20044;-57
2023/10/05 09:57:46;;;;;;;11.80;4.07;;;15.30;99.90;;;;;;5074423;28;20048;-57
2023/10/05 10:02:58;;;;;;;18.67;4.10;;;15.30;99.90;;;;;;5073510;28;20485;-57
2023/10/05 10:05:30;;;;;;;12.98;4.13;;;15.40;99.90;;;;;;5074020;28;20051;-57
2023/10/05 10:07:57;;;;;;;;;;;15.40;99.90;;;;;;5073235;28;20504;-57
2023/10/05 10:10:25;;;;;;;15.85;3.88;;;15.50;99.90;;;;;;5073566;28;19966;-57
2023/10/05 10:12:52;;;;;;;11.75;4.40;;;15.50;99.90;;;;;;5074026;28;20111;-57
2023/10/05 10:15:33;;;;;;;16.23;5.18;;;15.50;99.90;;;;;;5072668;28;20037;-57
2023/10/05 10:18:14;;;;;;;14.02;3.83;;;15.60;99.90;;;;;;5064131;28;20102;-58
2023/10/05 10:20:51;;;;;;;15.05;3.92;;;15.60;99.90;;;;;;5064704;28;20125;-58
2023/10/05 10:23:22;;;;;;;10.00;3.20;;;15.70;99.90;;;;;;5064941;28;20051;-59
2023/10/05 10:25:51;;;;;;;13.82;3.15;;;15.70;99.90;;;;;;5067548;28;20044;-59
2023/10/05 10:28:18;;;;;;;12.40;3.20;;;15.80;99.90;;;;;;5067261;28;20028;-59
2023/10/05 10:30:47;;;;;;;11.13;3.08;;;15.80;99.90;;;;;;5067746;28;20037;-58
2023/10/05 10:33:30;;;;;;;16.65;3.58;;;15.80;99.90;;;;;;5066343;28;20381;-59
2023/10/05 10:35:56;;;;;;;;;;;15.80;99.90;;;;;;5067455;28;20052;-59
2023/10/05 10:38:22;;;;;;;12.80;4.57;;;15.90;99.90;;;;;;5067547;28;19974;-59
2023/10/05 10:41:09;;;;;;;14.77;3.65;;;15.90;99.90;;;;;;5066685;28;20079;-60
2023/10/05 10:43:36;;;;;;;10.10;3.28;;;15.70;99.90;;;;;;5067221;28;20120;-59
2023/10/05 10:46:14;;;;;;;13.35;3.80;;;15.40;99.90;;;;;;5067037;28;20520;-60
2023/10/05 10:49:08;;;;;;;11.82;3.42;;;15.20;99.90;;;;;;5067435;28;20102;-60
2023/10/05 10:51:38;;;;;;;11.30;2.90;;;14.90;99.90;;;;;;5067591;28;20127;-60
2023/10/05 10:54:16;;;;;;;12.98;3.40;;;14.80;99.90;;;;;;5067536;28;20066;-60
2023/10/05 10:56:43;;;;;;;12.65;3.10;;;15.00;99.90;;;;;;5067274;28;20128;-60
2023/10/05 10:59:13;;;;;;;9.57;3.22;;;15.10;99.90;;;;;;5067376;28;20094;-59
2023/10/05 11:01:44;;;;;;;15.20;3.10;;;15.20;99.90;;;;;;5067001;28;20040;-61
2023/10/05 11:04:26;;;;;;;10.50;3.47;;;15.40;99.90;;;;;;5067402;28;20040;-60
2023/10/05 11:06:56;;;;;;;11.55;3.83;;;15.50;99.90;;;;;;5066947;28;20033;-60
2023/10/05 11:09:30;;;;;;;11.55;4.78;;;15.50;99.90;;;;;;5065521;28;20523;-58
2023/10/05 11:12:08;;;;;;;13.23;4.60;;;15.60;99.90;;;;;;5065063;28;20431;-60
2023/10/05 11:14:35;;;;;;;13.85;3.85;;;15.60;99.90;;;;;;5065605;28;20044;-61
2023/10/05 11:17:01;;;;;;;11.38;4.55;;;15.60;99.90;;;;;;5066652;28;20115;-59
2023/10/05 11:19:37;;;;;;;11.35;3.70;;;15.70;99.90;;;;;;5066125;28;20051;-49
2023/10/05 11:22:11;;;;;;;12.65;3.65;;;15.90;99.90;;;;;;5066320;28;20066;-46
2023/10/05 11:25:14;;;;;;;12.50;3.75;;;15.70;99.90;;;;;;5066486;28;20044;-56
2023/10/05 11:27:55;;;;;;;8.48;3.00;;;15.40;99.90;;;;;;5066611;28;20408;-58
2023/10/05 11:30:22;;;;;;;8.93;3.13;;;15.20;99.90;;;;;;5066572;28;20039;-58
2023/10/05 11:32:54;;;;;;;9.38;3.45;;;15.20;99.90;;;;;;5066689;28;20060;-46
2023/10/05 11:35:29;;;;;;;8.18;2.78;;;15.30;99.90;;;;;;5067074;28;20059;-50
2023/10/05 11:37:58;;;;;;;8.30;3.20;;;15.40;99.90;;;;;;5065334;28;20064;-46
2023/10/05 11:40:34;;;;;;;7.70;2.92;;;15.40;99.90;;;;;;5062828;28;20183;-46
2023/10/05 11:43:04;;;;;;;10.23;3.20;;;15.40;99.90;;;;;;5066455;28;20395;-46
2023/10/05 11:45:30;;;;;;;9.50;3.28;;;15.50;99.90;;;;;;5065612;28;20040;-47
2023/10/05 11:47:57;;;;;;;9.27;2.72;;;15.60;99.90;;;;;;5065706;28;20047;-46
2023/10/05 11:50:32;;;;;;;10.18;2.88;;;15.60;99.90;;;;;;5066139;28;20063;-45
2023/10/05 11:52:59;;;;;;;10.68;2.80;;;15.70;99.90;;;;;;5066149;28;20037;-49
2023/10/05 11:55:25;;;;;;;8.00;2.38;;;15.70;99.90;;;;;;5066038;28;20591;-46
2023/10/05 11:57:52;;;;;;;8.52;2.67;;;15.70;99.90;;;;;;5066487;28;20127;-46
2023/10/05 12:00:18;;;;;;;8.63;2.60;;;15.70;99.90;;;;;;5066376;28;20086;-58
2023/10/05 12:02:45;;;;;;;8.05;2.78;;;15.60;99.90;;;;;;5065968;28;20127;-58
2023/10/05 12:05:11;;;;;;;11.43;3.10;;;15.70;99.90;;;;;;5064222;28;20127;-58
2023/10/05 12:07:41;;;;;;;14.07;2.65;;;15.90;99.90;;;;;;5066129;28;20044;-58
2023/10/05 12:10:09;;;;;;;9.95;3.75;;;16.00;99.90;;;;;;5066059;28;20047;-58
2023/10/05 12:12:36;;;;;;;8.43;2.78;;;16.20;99.90;;;;;;5066470;28;20071;-58
2023/10/05 12:15:12;;;;;;;10.35;3.20;;;16.40;99.90;;;;;;5066106;28;20484;-58
2023/10/05 12:17:39;;;;;;;10.00;2.75;;;16.60;99.90;;;;;;5065030;28;20036;-45
2023/10/05 12:20:13;;;;;;;13.63;3.42;;;16.80;99.90;;;;;;5065521;28;20121;-46
2023/10/05 12:22:39;;;;;;;8.48;2.90;;;16.70;99.90;;;;;;5064573;28;20178;-47
2023/10/05 12:25:07;;;;;;;10.93;3.47;;;16.90;99.90;;;;;;5066116;28;20507;-47
2023/10/05 12:27:35;;;;;;;17.45;3.50;;;16.80;99.90;;;;;;5069014;28;20045;-46
2023/10/05 12:30:10;;;;;;;11.68;3.05;;;16.60;93.60;;;;;;5069442;28;20501;-47
2023/10/05 12:32:39;;;;;;;16.50;3.20;;;16.60;99.90;;;;;;5069836;28;20060;-47
2023/10/05 12:35:16;;;;;;;9.35;3.38;;;16.40;99.90;;;;;;5068871;28;20064;-49
2023/10/05 12:37:44;;;;;;;9.93;3.35;;;15.90;99.90;;;;;;5067935;28;20067;-57
2023/10/05 12:40:20;;;;;;;12.55;3.17;;;15.40;99.90;;;;;;5069065;28;20181;-58
2023/10/05 12:42:53;;;;;;;17.75;3.90;;;15.10;99.90;;;;;;5069776;28;20064;-58
2023/10/05 12:45:22;;;;;;;12.10;3.35;;;14.70;99.90;;;;;;5069551;28;20068;-55
2023/10/05 12:47:57;;;;;;;14.30;4.15;;;14.70;99.90;;;;;;5069644;28;20495;-51
2023/10/05 12:50:27;;;;;;;11.35;3.78;;;15.00;99.90;;;;;;5069231;28;20124;-49
2023/10/05 12:52:54;;;;;;;14.70;4.18;;;15.10;99.90;;;;;;5068422;28;20043;-60
2023/10/05 12:55:23;;;;;;;12.55;3.72;;;15.40;99.90;;;;;;5069110;28;20044;-60
2023/10/05 12:57:53;;;;;;;14.02;3.58;;;15.60;99.90;;;;;;5069100;28;20055;-60
2023/10/05 13:00:28;;;;;;;7.57;2.50;;;15.60;99.90;;;;;;5069718;28;20045;-58
2023/10/05 13:02:54;;;;;;;11.60;2.80;;;15.70;99.90;;;;;;5068026;28;20912;-58
2023/10/05 13:05:22;;;;;;;9.98;2.70;;;15.70;99.90;;;;;;5069840;28;20051;-58
2023/10/05 13:07:53;;;;;;;8.38;2.67;;;15.70;99.90;;;;;;5068721;28;20060;-58
2023/10/05 13:10:26;;;;;;;8.10;2.30;;;15.80;99.90;;;;;;5069351;28;20045;-58
2023/10/05 13:13:00;;;;;;;11.50;2.60;;;15.90;99.90;;;;;;5069095;28;20550;-58
2023/10/05 13:15:35;;;;;;;10.82;2.67;;;15.90;99.90;;;;;;5067873;28;20106;-58
2023/10/05 13:18:17;;;;;;;10.68;2.55;;;16.10;99.90;;;;;;5069032;28;20367;-58
2023/10/05 13:20:51;;;;;;;10.85;2.38;;;16.10;99.90;;;;;;5069128;28;20049;-58
2023/10/05 13:23:21;;;;;;;10.65;2.70;;;16.10;99.90;;;;;;5068635;28;20036;-58
2023/10/05 13:25:52;;;;;;;11.63;3.13;;;16.20;99.90;;;;;;5069045;28;20454;-58
2023/10/05 13:28:24;;;;;;;9.82;2.28;;;16.10;99.90;;;;;;5068913;28;20218;-58
2023/10/05 13:30:50;;;;;;;12.15;2.83;;;16.10;99.90;;;;;;5067704;28;20052;-58